Search for airport 
image banner adimage banner adimage banner ad
image banner ad

6G1 - Titusville

Located in Titusville, United States

ICAO - 6G1, IATA -

Data provided by Airmate  

General information

Coordinates: N41°36'32" W79°44'29"
Elevation is 1600 feet MSL.
Magnetic variation is -10° East
View others Airports in Pennsylvania

Operational data

Special qualification required
Current time UTC:
Current local time:
Weather at : KFKL - Venango Rgnl ( 28 km )
METAR: KFKL 071156Z AUTO 01003KT 10SM -RA OVC027 05/03 A2992 RMK AO2 RAB31 SLP137 P0001 60001 70001 T00500028 10067 20050 53006
TAF: KFKL 071133Z 0712/0812 36004KT 5SM -SHRA OVC020 FM071300 31004KT 3SM -SHRA OVC010 FM072000 31007KT P6SM BKN015 FM072300 31007KT P6SM BKN025 FM080600 00000KT P6SM VCSH BKN025
View NOTAMs / SUP AIP / TFR affecting this airport [VIEW]
Communications frequencies: [VIEW]

Runways:

RWY identifierQFULength (ft)Width (ft)SurfaceLDA (ft)
01357°490275ASPH
19177°490275ASPH

Airport contact information

Address: Titusville United States

Satellite view of 6G1